createdAt,value
2019-02-19T00:05:44.019Z,14.63
2019-02-19T00:11:48.573Z,12.80
2019-02-19T00:17:53.276Z,13.70
2019-02-19T00:23:58.387Z,14.30
2019-02-19T00:30:04.030Z,13.43
2019-02-19T00:36:08.832Z,15.50
2019-02-19T00:42:13.413Z,17.63
2019-02-19T00:48:18.107Z,14.37
2019-02-19T00:54:22.650Z,18.33
2019-02-19T01:00:27.274Z,14.50
2019-02-19T01:06:32.036Z,13.20
2019-02-19T01:12:36.670Z,13.37
2019-02-19T01:18:42.919Z,19.47
2019-02-19T01:24:47.612Z,14.70
2019-02-19T01:30:52.842Z,15.20
2019-02-19T01:36:57.416Z,15.53
2019-02-19T01:43:02.265Z,12.90
2019-02-19T01:49:06.815Z,25.60
2019-02-19T01:55:11.474Z,21.57
2019-02-19T02:01:16.027Z,20.67
2019-02-19T02:07:21.957Z,16.07
2019-02-19T02:13:26.540Z,17.53
2019-02-19T02:19:31.714Z,19.37
2019-02-19T02:25:36.539Z,16.67
2019-02-19T02:31:41.519Z,15.03
2019-02-19T02:37:49.258Z,19.80
2019-02-19T02:43:53.969Z,13.70
2019-02-19T02:49:58.985Z,14.63
2019-02-19T02:56:03.666Z,12.57
2019-02-19T03:02:08.459Z,13.40
2019-02-19T03:08:13.220Z,16.97
2019-02-19T03:14:18.029Z,14.13
2019-02-19T03:20:23.863Z,12.73
2019-02-19T03:26:29.092Z,15.67
2019-02-19T03:32:33.902Z,13.63
2019-02-19T03:38:38.455Z,24.57
2019-02-19T03:44:43.319Z,20.63
2019-02-19T03:50:47.954Z,18.23
2019-02-19T03:56:52.661Z,17.70
2019-02-19T04:02:57.471Z,15.60
2019-02-19T04:09:02.284Z,15.33
2019-02-19T04:15:08.561Z,17.17
2019-02-19T04:21:13.124Z,14.83
2019-02-19T04:27:17.727Z,16.53
2019-02-19T04:33:22.396Z,20.93
2019-02-19T04:39:30.674Z,17.27
2019-02-19T04:45:35.471Z,15.60
2019-02-19T04:51:40.110Z,18.87
2019-02-19T04:57:44.880Z,15.07
2019-02-19T05:03:49.438Z,15.30
2019-02-19T05:09:55.130Z,13.93
2019-02-19T05:15:59.743Z,21.10
2019-02-19T05:22:04.560Z,15.87
2019-02-19T05:28:09.126Z,18.80
2019-02-19T05:34:13.750Z,20.00
2019-02-19T05:40:18.489Z,13.57
2019-02-19T05:46:23.040Z,13.60
2019-02-19T05:52:29.265Z,15.77
2019-02-19T05:58:34.010Z,17.80
2019-02-19T06:04:38.890Z,16.00
2019-02-19T06:10:44.182Z,12.67
2019-02-19T06:16:49.052Z,13.40
2019-02-19T06:22:55.229Z,14.33
2019-02-19T06:29:01.967Z,13.70
2019-02-19T06:35:08.033Z,19.30
2019-02-19T06:41:15.034Z,12.13
2019-02-19T06:47:19.960Z,12.47
2019-02-19T06:53:24.825Z,14.50
2019-02-19T06:59:29.935Z,12.83
2019-02-19T07:05:34.649Z,11.40
2019-02-19T07:11:39.212Z,11.00
2019-02-19T07:17:43.761Z,17.73
2019-02-19T07:23:48.350Z,16.27
2019-02-19T07:29:52.902Z,20.37
2019-02-19T07:35:57.451Z,12.73
2019-02-19T07:42:02.146Z,12.33
2019-02-19T07:48:06.740Z,14.73
2019-02-19T08:00:21.222Z,18.40
2019-02-19T08:06:25.793Z,17.93
2019-02-19T08:12:30.504Z,22.43
2019-02-19T08:18:35.353Z,17.50
2019-02-19T08:24:39.984Z,15.13
2019-02-19T08:30:44.612Z,14.07
2019-02-19T08:36:49.227Z,15.97
2019-02-19T08:42:53.865Z,19.10
2019-02-19T08:49:00.884Z,20.80
2019-02-19T08:55:06.689Z,27.73
2019-02-19T09:01:11.463Z,15.47
2019-02-19T09:07:16.300Z,15.73
2019-02-19T09:13:21.030Z,20.83
2019-02-19T09:19:25.575Z,20.97
2019-02-19T09:25:30.616Z,20.70
2019-02-19T09:31:35.317Z,18.10
2019-02-19T09:37:40.055Z,21.70
2019-02-19T09:43:44.787Z,31.63
2019-02-19T09:49:49.369Z,27.73
2019-02-19T09:55:54.533Z,26.93
2019-02-19T10:01:59.276Z,30.50
2019-02-19T10:08:03.934Z,22.00
2019-02-19T10:14:08.715Z,21.20
2019-02-19T10:20:13.572Z,24.47
2019-02-19T10:26:18.201Z,27.87
2019-02-19T10:32:23.780Z,24.63
2019-02-19T10:38:28.422Z,25.10
2019-02-19T10:44:33.550Z,29.67
2019-02-19T10:50:38.442Z,29.53
2019-02-19T10:56:43.000Z,25.50
2019-02-19T11:02:48.013Z,32.27
2019-02-19T11:08:52.721Z,32.27
2019-02-19T11:14:57.261Z,24.53
2019-02-19T11:21:02.669Z,24.13
2019-02-19T11:27:07.245Z,31.13
2019-02-19T11:33:11.949Z,39.47
2019-02-19T11:39:16.803Z,27.73
2019-02-19T11:45:21.776Z,23.63
2019-02-19T11:51:26.347Z,23.30
2019-02-19T11:57:31.324Z,23.60
2019-02-19T12:03:35.904Z,19.10
2019-02-19T12:09:41.812Z,20.57
2019-02-19T12:15:50.120Z,25.53
2019-02-19T12:21:54.765Z,17.87
2019-02-19T12:27:59.446Z,17.40
2019-02-19T12:34:04.492Z,20.10
2019-02-19T12:40:12.262Z,15.13
2019-02-19T12:46:18.143Z,17.07
2019-02-19T12:52:22.770Z,11.87
2019-02-19T12:58:27.511Z,12.47
2019-02-19T13:04:32.395Z,12.90
2019-02-19T13:10:36.962Z,10.20
2019-02-19T13:16:41.531Z,14.77
2019-02-19T13:22:46.110Z,10.70
2019-02-19T13:28:50.764Z,9.80
2019-02-19T13:34:56.910Z,8.97
2019-02-19T13:41:01.462Z,7.50
2019-02-19T13:47:06.192Z,9.23
2019-02-19T13:53:15.123Z,9.50
2019-02-19T13:59:19.829Z,12.53
2019-02-19T14:05:25.338Z,13.53
2019-02-19T14:11:30.996Z,10.83
2019-02-19T14:17:35.901Z,13.87
2019-02-19T14:23:58.665Z,13.57
2019-02-19T14:30:19.876Z,13.63
2019-02-19T14:36:38.970Z,13.87
2019-02-19T14:43:01.151Z,17.73
2019-02-19T14:49:34.077Z,11.03
2019-02-19T14:55:32.724Z,9.93
2019-02-19T15:01:54.928Z,11.60
2019-02-19T15:08:05.339Z,11.90
2019-02-19T15:14:14.659Z,8.73
2019-02-19T15:20:29.884Z,9.20
2019-02-19T15:26:34.220Z,9.30
2019-02-19T15:32:49.481Z,8.40
2019-02-19T15:38:58.647Z,8.10
2019-02-19T15:45:20.886Z,10.50
2019-02-19T15:51:30.007Z,10.43
2019-02-19T15:57:45.580Z,5.23
2019-02-19T16:03:51.798Z,8.30
2019-02-19T16:09:59.717Z,7.07
2019-02-19T16:16:12.121Z,15.23
2019-02-19T16:22:33.528Z,7.83
2019-02-19T16:28:42.815Z,12.43
2019-02-19T16:34:56.576Z,6.50
2019-02-19T16:41:19.481Z,10.83
2019-02-19T16:47:26.627Z,8.60
2019-02-19T16:53:41.472Z,10.40
2019-02-19T17:00:03.538Z,11.33
2019-02-19T17:06:09.812Z,11.33
2019-02-19T17:12:20.095Z,15.03
2019-02-19T17:18:32.391Z,17.00
2019-02-19T17:24:38.683Z,13.53
2019-02-19T17:30:47.685Z,7.50
2019-02-19T17:36:53.912Z,11.93
2019-02-19T17:43:00.214Z,13.27
2019-02-19T17:49:15.246Z,17.50
2019-02-19T17:55:34.471Z,7.73
2019-02-19T18:01:56.290Z,9.10
2019-02-19T18:08:12.522Z,14.50
2019-02-19T18:14:24.220Z,12.37
2019-02-19T18:20:29.441Z,14.73
2019-02-19T18:26:34.155Z,11.93
2019-02-19T18:32:38.812Z,9.70
2019-02-19T18:38:43.704Z,14.73
2019-02-19T18:44:48.268Z,16.93
2019-02-19T18:50:58.539Z,42.63
2019-02-19T18:56:59.380Z,28.80
2019-02-19T19:03:06.645Z,21.20
2019-02-19T19:09:11.305Z,14.27
2019-02-19T19:15:15.945Z,13.83
2019-02-19T19:21:20.587Z,14.27
2019-02-19T19:27:26.157Z,15.90
2019-02-19T19:33:30.879Z,16.00
2019-02-19T19:39:35.552Z,12.80
2019-02-19T19:45:40.129Z,21.33
2019-02-19T19:51:44.774Z,16.83
2019-02-19T19:57:49.546Z,15.53
2019-02-19T20:03:54.186Z,17.93
2019-02-19T20:09:59.067Z,15.77
2019-02-19T20:16:03.921Z,12.60
2019-02-19T20:22:08.478Z,16.47
2019-02-19T20:28:13.180Z,10.43
2019-02-19T20:34:19.793Z,12.93
2019-02-19T20:40:24.452Z,10.60
2019-02-19T20:46:29.068Z,9.27
2019-02-19T20:52:34.420Z,10.20
2019-02-19T20:58:39.118Z,13.70
2019-02-19T21:04:43.656Z,9.30
2019-02-19T21:10:48.313Z,11.77
2019-02-19T21:16:53.025Z,7.07
2019-02-19T21:22:57.718Z,11.97
2019-02-19T21:29:03.113Z,12.53
2019-02-19T21:35:09.304Z,9.93
2019-02-19T21:41:14.061Z,11.03
2019-02-19T21:47:18.680Z,11.13
2019-02-19T21:53:23.377Z,7.07
2019-02-19T21:59:28.094Z,7.40
2019-02-19T22:05:33.092Z,8.80
2019-02-19T22:11:37.646Z,12.93
2019-02-19T22:17:42.383Z,6.43
2019-02-19T22:23:47.131Z,12.07
2019-02-19T22:29:51.886Z,5.90
2019-02-19T22:35:56.450Z,8.93
2019-02-19T22:42:01.242Z,7.97
2019-02-19T22:48:06.524Z,7.90
2019-02-19T22:54:22.182Z,6.77
2019-02-19T23:00:47.529Z,12.53
2019-02-19T23:06:52.155Z,6.00
2019-02-19T23:12:57.325Z,3.33
2019-02-19T23:19:02.242Z,9.77
2019-02-19T23:25:07.546Z,8.10
2019-02-19T23:31:12.255Z,6.33
2019-02-19T23:37:16.881Z,6.80
2019-02-19T23:43:21.501Z,8.13
2019-02-19T23:49:26.581Z,11.83
2019-02-19T23:55:31.955Z,6.63
